sensor_id;sensor_type;location;lat;lon;timestamp;pressure;altitude;pressure_sealevel;temperature;humidity
39789;BME280;25478;42.626;23.320;2023-02-10T00:01:43;94729.41;;;-8.54;73.56
39789;BME280;25478;42.626;23.320;2023-02-10T00:04:10;94729.41;;;-8.54;73.19
39789;BME280;25478;42.626;23.320;2023-02-10T00:06:35;94732.16;;;-8.56;73.24
39789;BME280;25478;42.626;23.320;2023-02-10T00:09:01;94729.63;;;-8.56;73.33
39789;BME280;25478;42.626;23.320;2023-02-10T00:11:27;94721.94;;;-8.56;73.62
39789;BME280;25478;42.626;23.320;2023-02-10T00:14:12;94725.28;;;-8.55;73.55
39789;BME280;25478;42.626;23.320;2023-02-10T00:16:37;94717.84;;;-8.57;73.61
39789;BME280;25478;42.626;23.320;2023-02-10T00:19:03;94727.28;;;-8.57;73.80
39789;BME280;25478;42.626;23.320;2023-02-10T00:21:28;94727.28;;;-8.57;73.93
39789;BME280;25478;42.626;23.320;2023-02-10T00:23:54;94720.59;;;-8.58;73.60
39789;BME280;25478;42.626;23.320;2023-02-10T00:26:19;94721.38;;;-8.58;73.77
39789;BME280;25478;42.626;23.320;2023-02-10T00:28:45;94709.41;;;-8.57;73.96
39789;BME280;25478;42.626;23.320;2023-02-10T00:31:11;94718.63;;;-8.56;73.75
39789;BME280;25478;42.626;23.320;2023-02-10T00:33:38;94714.50;;;-8.57;74.03
39789;BME280;25478;42.626;23.320;2023-02-10T00:36:04;94710.59;;;-8.60;74.03
39789;BME280;25478;42.626;23.320;2023-02-10T00:38:30;94711.38;;;-8.59;74.11
39789;BME280;25478;42.626;23.320;2023-02-10T00:40:55;94709.25;;;-8.62;74.01
39789;BME280;25478;42.626;23.320;2023-02-10T00:43:20;94707.16;;;-8.65;74.10
39789;BME280;25478;42.626;23.320;2023-02-10T00:45:46;94701.44;;;-8.67;74.43
39789;BME280;25478;42.626;23.320;2023-02-10T00:48:11;94702.66;;;-8.70;74.40
39789;BME280;25478;42.626;23.320;2023-02-10T00:50:36;94697.00;;;-8.72;74.64
39789;BME280;25478;42.626;23.320;2023-02-10T00:53:02;94700.56;;;-8.73;74.34
39789;BME280;25478;42.626;23.320;2023-02-10T00:55:27;94696.63;;;-8.75;74.37
39789;BME280;25478;42.626;23.320;2023-02-10T00:57:55;94698.63;;;-8.77;74.60
39789;BME280;25478;42.626;23.320;2023-02-10T01:00:20;94691.97;;;-8.78;74.46
39789;BME280;25478;42.626;23.320;2023-02-10T01:02:46;94687.09;;;-8.80;74.37
39789;BME280;25478;42.626;23.320;2023-02-10T01:05:11;94680.97;;;-8.79;74.65
39789;BME280;25478;42.626;23.320;2023-02-10T01:07:36;94689.63;;;-8.80;74.78
39789;BME280;25478;42.626;23.320;2023-02-10T01:10:02;94683.19;;;-8.83;74.55
39789;BME280;25478;42.626;23.320;2023-02-10T01:12:28;94685.75;;;-8.83;74.68
39789;BME280;25478;42.626;23.320;2023-02-10T01:14:53;94685.94;;;-8.84;74.49
39789;BME280;25478;42.626;23.320;2023-02-10T01:17:19;94685.38;;;-8.86;74.79
39789;BME280;25478;42.626;23.320;2023-02-10T01:19:44;94681.50;;;-8.89;75.02
39789;BME280;25478;42.626;23.320;2023-02-10T01:22:10;94675.03;;;-8.91;75.01
39789;BME280;25478;42.626;23.320;2023-02-10T01:24:36;94670.13;;;-8.93;74.96
39789;BME280;25478;42.626;23.320;2023-02-10T01:27:02;94664.25;;;-8.93;75.03
39789;BME280;25478;42.626;23.320;2023-02-10T01:29:27;94661.94;;;-8.95;75.01
39789;BME280;25478;42.626;23.320;2023-02-10T01:31:52;94660.38;;;-8.96;74.94
39789;BME280;25478;42.626;23.320;2023-02-10T01:34:18;94661.38;;;-8.97;75.19
39789;BME280;25478;42.626;23.320;2023-02-10T01:36:43;94660.59;;;-8.97;75.13
39789;BME280;25478;42.626;23.320;2023-02-10T01:39:09;94659.03;;;-8.98;75.16
39789;BME280;25478;42.626;23.320;2023-02-10T01:41:34;94650.78;;;-9.00;75.18
39789;BME280;25478;42.626;23.320;2023-02-10T01:46:29;94657.09;;;-9.03;75.22
39789;BME280;25478;42.626;23.320;2023-02-10T01:48:55;94659.66;;;-9.03;75.32
39789;BME280;25478;42.626;23.320;2023-02-10T01:51:27;94648.69;;;-9.03;75.40
39789;BME280;25478;42.626;23.320;2023-02-10T01:53:57;94643.56;;;-9.03;75.60
39789;BME280;25478;42.626;23.320;2023-02-10T01:56:23;94646.13;;;-9.03;75.65
39789;BME280;25478;42.626;23.320;2023-02-10T01:58:49;94641.03;;;-9.03;75.28
39789;BME280;25478;42.626;23.320;2023-02-10T02:01:15;94633.59;;;-9.05;75.72
39789;BME280;25478;42.626;23.320;2023-02-10T02:03:41;94574.38;;;-9.44;75.34
39789;BME280;25478;42.626;23.320;2023-02-10T02:06:07;94626.34;;;-9.08;75.31
39789;BME280;25478;42.626;23.320;2023-02-10T02:08:33;94626.56;;;-9.10;75.15
39789;BME280;25478;42.626;23.320;2023-02-10T02:11:16;94621.69;;;-9.11;75.32
39789;BME280;25478;42.626;23.320;2023-02-10T02:34:58;94611.63;;;-9.24;75.48
39789;BME280;25478;42.626;23.320;2023-02-10T02:37:37;94616.94;;;-9.26;75.76
39789;BME280;25478;42.626;23.320;2023-02-10T02:40:05;94606.53;;;-9.24;75.53
39789;BME280;25478;42.626;23.320;2023-02-10T02:42:31;94615.16;;;-9.25;75.68
39789;BME280;25478;42.626;23.320;2023-02-10T02:45:02;94609.28;;;-9.26;75.77
39789;BME280;25478;42.626;23.320;2023-02-10T02:47:43;94610.06;;;-9.25;75.66
39789;BME280;25478;42.626;23.320;2023-02-10T02:57:50;94613.38;;;-9.25;76.21
39789;BME280;25478;42.626;23.320;2023-02-10T03:00:19;94613.97;;;-9.23;76.01
39789;BME280;25478;42.626;23.320;2023-02-10T03:02:46;94607.09;;;-9.22;76.04
39789;BME280;25478;42.626;23.320;2023-02-10T03:05:19;94606.53;;;-9.24;76.24
39789;BME280;25478;42.626;23.320;2023-02-10T03:07:46;94596.34;;;-9.24;76.26
39789;BME280;25478;42.626;23.320;2023-02-10T03:10:12;94595.53;;;-9.25;75.99
39789;BME280;25478;42.626;23.320;2023-02-10T03:12:37;94599.84;;;-9.25;76.45
39789;BME280;25478;42.626;23.320;2023-02-10T03:15:02;94602.41;;;-9.25;76.24
39789;BME280;25478;42.626;23.320;2023-02-10T03:17:28;94597.53;;;-9.27;76.58
39789;BME280;25478;42.626;23.320;2023-02-10T03:19:53;94610.28;;;-9.27;76.74
39789;BME280;25478;42.626;23.320;2023-02-10T03:22:19;94606.16;;;-9.28;76.68
39789;BME280;25478;42.626;23.320;2023-02-10T03:24:44;94620.13;;;-9.30;76.91
39789;BME280;25478;42.626;23.320;2023-02-10T03:27:09;94616.44;;;-9.34;76.75
39789;BME280;25478;42.626;23.320;2023-02-10T03:29:35;94618.22;;;-9.35;76.66
39789;BME280;25478;42.626;23.320;2023-02-10T03:32:00;94613.53;;;-9.38;76.65
39789;BME280;25478;42.626;23.320;2023-02-10T03:34:27;94610.84;;;-9.43;77.07
39789;BME280;25478;42.626;23.320;2023-02-10T03:36:52;94616.16;;;-9.45;77.23
39789;BME280;25478;42.626;23.320;2023-02-10T03:39:17;94608.72;;;-9.46;77.23
39789;BME280;25478;42.626;23.320;2023-02-10T03:41:43;94606.03;;;-9.51;77.15
39789;BME280;25478;42.626;23.320;2023-02-10T03:44:08;94603.69;;;-9.53;77.37
39789;BME280;25478;42.626;23.320;2023-02-10T03:46:34;94593.94;;;-9.56;77.34
39789;BME280;25478;42.626;23.320;2023-02-10T03:49:02;94590.81;;;-9.58;77.67
39789;BME280;25478;42.626;23.320;2023-02-10T03:51:27;94587.91;;;-9.61;77.75
39789;BME280;25478;42.626;23.320;2023-02-10T03:53:52;94593.78;;;-9.61;77.65
39789;BME280;25478;42.626;23.320;2023-02-10T03:56:18;94588.31;;;-9.65;77.89
39789;BME280;25478;42.626;23.320;2023-02-10T03:58:43;94587.78;;;-9.67;78.05
39789;BME280;25478;42.626;23.320;2023-02-10T04:01:12;94585.41;;;-9.68;78.00
39789;BME280;25478;42.626;23.320;2023-02-10T04:03:38;94587.19;;;-9.69;78.04
39789;BME280;25478;42.626;23.320;2023-02-10T04:06:04;94580.75;;;-9.71;77.70
39789;BME280;25478;42.626;23.320;2023-02-10T04:08:29;94582.28;;;-9.70;77.92
39789;BME280;25478;42.626;23.320;2023-02-10T04:10:55;94579.97;;;-9.72;78.30
39789;BME280;25478;42.626;23.320;2023-02-10T04:13:20;94581.53;;;-9.71;78.40
39789;BME280;25478;42.626;23.320;2023-02-10T04:15:46;94576.06;;;-9.74;78.45
39789;BME280;25478;42.626;23.320;2023-02-10T04:18:11;94582.13;;;-9.75;78.02
39789;BME280;25478;42.626;23.320;2023-02-10T04:20:36;94580.81;;;-9.78;77.89
39789;BME280;25478;42.626;23.320;2023-02-10T04:23:02;94585.56;;;-9.81;78.25
39789;BME280;25478;42.626;23.320;2023-02-10T04:25:27;94589.50;;;-9.85;77.97
39789;BME280;25478;42.626;23.320;2023-02-10T04:27:53;94586.59;;;-9.89;78.02
39789;BME280;25478;42.626;23.320;2023-02-10T04:30:18;94579.34;;;-9.92;78.12
39789;BME280;25478;42.626;23.320;2023-02-10T04:32:43;94584.66;;;-9.94;78.20
39789;BME280;25478;42.626;23.320;2023-02-10T04:35:10;94589.19;;;-9.96;78.38
39789;BME280;25478;42.626;23.320;2023-02-10T04:37:35;94577.25;;;-9.95;78.34
39789;BME280;25478;42.626;23.320;2023-02-10T04:40:00;94588.44;;;-9.96;78.31
39789;BME280;25478;42.626;23.320;2023-02-10T04:42:26;94583.53;;;-9.98;78.20
39789;BME280;25478;42.626;23.320;2023-02-10T04:44:58;94576.91;;;-9.99;78.70
39789;BME280;25478;42.626;23.320;2023-02-10T04:47:27;94582.00;;;-9.99;78.36
39789;BME280;25478;42.626;23.320;2023-02-10T04:49:52;94592.97;;;-9.98;78.35
39789;BME280;25478;42.626;23.320;2023-02-10T04:52:18;94597.50;;;-10.00;78.39
39789;BME280;25478;42.626;23.320;2023-02-10T04:54:43;94595.91;;;-10.01;78.19
39789;BME280;25478;42.626;23.320;2023-02-10T04:57:09;94598.09;;;-10.05;78.23
39789;BME280;25478;42.626;23.320;2023-02-10T04:59:34;94595.97;;;-10.08;78.26
39789;BME280;25478;42.626;23.320;2023-02-10T05:02:00;94591.66;;;-10.07;78.38
39789;BME280;25478;42.626;23.320;2023-02-10T05:04:25;94591.06;;;-10.09;79.00
39789;BME280;25478;42.626;23.320;2023-02-10T05:06:50;94592.84;;;-10.10;78.92
39789;BME280;25478;42.626;23.320;2023-02-10T05:09:16;94599.72;;;-10.10;78.57
39789;BME280;25478;42.626;23.320;2023-02-10T05:11:41;94601.47;;;-10.11;78.58
39789;BME280;25478;42.626;23.320;2023-02-10T05:14:07;94600.13;;;-10.13;78.90
39789;BME280;25478;42.626;23.320;2023-02-10T05:16:33;94608.00;;;-10.15;78.89
39789;BME280;25478;42.626;23.320;2023-02-10T05:18:58;94610.94;;;-10.18;78.48
39789;BME280;25478;42.626;23.320;2023-02-10T05:21:23;94617.78;;;-10.18;78.56
39789;BME280;25478;42.626;23.320;2023-02-10T05:23:49;94625.44;;;-10.18;78.52
39789;BME280;25478;42.626;23.320;2023-02-10T05:26:14;94626.22;;;-10.18;78.64
39789;BME280;25478;42.626;23.320;2023-02-10T05:28:39;94628.75;;;-10.18;78.75
39789;BME280;25478;42.626;23.320;2023-02-10T05:31:05;94630.91;;;-10.15;78.85
39789;BME280;25478;42.626;23.320;2023-02-10T05:33:32;94633.47;;;-10.15;79.29
39789;BME280;25478;42.626;23.320;2023-02-10T05:35:57;94628.94;;;-10.13;78.92
39789;BME280;25478;42.626;23.320;2023-02-10T05:38:22;94634.81;;;-10.12;79.15
39789;BME280;25478;42.626;23.320;2023-02-10T05:40:48;94637.91;;;-10.10;79.12
39789;BME280;25478;42.626;23.320;2023-02-10T05:43:14;94649.66;;;-10.09;78.85
39789;BME280;25478;42.626;23.320;2023-02-10T05:45:39;94652.78;;;-10.07;79.03
39789;BME280;25478;42.626;23.320;2023-02-10T05:48:07;94657.47;;;-10.04;78.92
39789;BME280;25478;42.626;23.320;2023-02-10T05:50:33;94649.41;;;-10.01;78.73
39789;BME280;25478;42.626;23.320;2023-02-10T05:52:58;94656.06;;;-10.00;78.69
39789;BME280;25478;42.626;23.320;2023-02-10T05:55:24;94656.44;;;-9.97;78.67
39789;BME280;25478;42.626;23.320;2023-02-10T05:57:50;94653.47;;;-9.94;79.33
39789;BME280;25478;42.626;23.320;2023-02-10T06:00:16;94662.03;;;-9.88;78.67
39789;BME280;25478;42.626;23.320;2023-02-10T06:02:42;94648.47;;;-9.82;78.69
39789;BME280;25478;42.626;23.320;2023-02-10T06:05:08;94659.41;;;-9.75;78.82
39789;BME280;25478;42.626;23.320;2023-02-10T06:07:34;94656.00;;;-9.69;78.57
39789;BME280;25478;42.626;23.320;2023-02-10T06:09:59;94662.81;;;-9.62;78.95
39789;BME280;25478;42.626;23.320;2023-02-10T06:12:25;94672.75;;;-9.54;78.86
39789;BME280;25478;42.626;23.320;2023-02-10T06:14:50;94672.69;;;-9.48;78.97
39789;BME280;25478;42.626;23.320;2023-02-10T06:17:15;94672.97;;;-9.38;78.59
39789;BME280;25478;42.626;23.320;2023-02-10T06:19:41;94671.28;;;-9.25;78.64
39789;BME280;25478;42.626;23.320;2023-02-10T06:22:07;94673.69;;;-9.12;78.61
39789;BME280;25478;42.626;23.320;2023-02-10T06:24:33;94668.03;;;-8.96;78.29
39789;BME280;25478;42.626;23.320;2023-02-10T06:26:58;94678.44;;;-8.79;78.25
39789;BME280;25478;42.626;23.320;2023-02-10T06:29:24;94672.75;;;-8.63;78.39
39789;BME280;25478;42.626;23.320;2023-02-10T06:31:49;94687.25;;;-8.45;78.26
39789;BME280;25478;42.626;23.320;2023-02-10T06:34:15;94686.16;;;-8.26;78.23
39789;BME280;25478;42.626;23.320;2023-02-10T06:36:40;94685.00;;;-8.11;77.82
39789;BME280;25478;42.626;23.320;2023-02-10T06:39:06;94677.56;;;-8.01;77.74
39789;BME280;25478;42.626;23.320;2023-02-10T06:41:31;94673.13;;;-7.94;77.49
39789;BME280;25478;42.626;23.320;2023-02-10T06:43:57;94687.59;;;-7.88;77.74
39789;BME280;25478;42.626;23.320;2023-02-10T06:46:22;94689.28;;;-7.82;77.48
39789;BME280;25478;42.626;23.320;2023-02-10T06:48:48;94689.38;;;-7.77;77.18
39789;BME280;25478;42.626;23.320;2023-02-10T06:51:13;94689.59;;;-7.78;77.34
39789;BME280;25478;42.626;23.320;2023-02-10T06:53:39;94691.50;;;-7.74;77.62
39789;BME280;25478;42.626;23.320;2023-02-10T06:56:04;94699.84;;;-7.67;77.44
39789;BME280;25478;42.626;23.320;2023-02-10T06:58:29;94707.41;;;-7.60;77.51
39789;BME280;25478;42.626;23.320;2023-02-10T07:00:55;94704.31;;;-7.50;77.45
39789;BME280;25478;42.626;23.320;2023-02-10T07:03:21;94711.66;;;-7.42;77.62
39789;BME280;25478;42.626;23.320;2023-02-10T07:05:46;94698.66;;;-7.29;77.63
39789;BME280;25478;42.626;23.320;2023-02-10T07:08:11;94702.09;;;-7.12;77.28
39789;BME280;25478;42.626;23.320;2023-02-10T07:10:37;94701.53;;;-7.02;77.22
39789;BME280;25478;42.626;23.320;2023-02-10T07:13:02;94704.06;;;-6.90;77.07
39789;BME280;25478;42.626;23.320;2023-02-10T07:15:28;94701.16;;;-6.82;76.81
39789;BME280;25478;42.626;23.320;2023-02-10T07:17:53;94691.31;;;-6.73;76.74
39789;BME280;25478;42.626;23.320;2023-02-10T07:20:19;94685.53;;;-6.69;76.26
39789;BME280;25478;42.626;23.320;2023-02-10T07:22:44;94687.09;;;-6.68;76.29
39789;BME280;25478;42.626;23.320;2023-02-10T07:25:10;94688.47;;;-6.48;76.41
39789;BME280;25478;42.626;23.320;2023-02-10T07:27:35;94688.84;;;-6.28;76.02
39789;BME280;25478;42.626;23.320;2023-02-10T07:30:00;94683.22;;;-6.13;75.93
39789;BME280;25478;42.626;23.320;2023-02-10T07:32:26;94681.50;;;-6.08;75.55
39789;BME280;25478;42.626;23.320;2023-02-10T07:34:53;94688.44;;;-5.91;75.36
39789;BME280;25478;42.626;23.320;2023-02-10T07:37:18;94688.56;;;-5.81;74.99
39789;BME280;25478;42.626;23.320;2023-02-10T07:39:44;94688.38;;;-5.80;74.88
39789;BME280;25478;42.626;23.320;2023-02-10T07:42:09;94687.56;;;-5.80;74.49
39789;BME280;25478;42.626;23.320;2023-02-10T07:44:53;94683.69;;;-5.83;74.38
39789;BME280;25478;42.626;23.320;2023-02-10T07:47:20;94686.25;;;-5.83;74.42
39789;BME280;25478;42.626;23.320;2023-02-10T07:49:45;94687.13;;;-5.77;74.62
39789;BME280;25478;42.626;23.320;2023-02-10T07:52:11;94683.16;;;-5.68;74.18
39789;BME280;25478;42.626;23.320;2023-02-10T07:54:36;94686.59;;;-5.62;73.87
39789;BME280;25478;42.626;23.320;2023-02-10T07:57:02;94694.34;;;-5.57;73.71
39789;BME280;25478;42.626;23.320;2023-02-10T07:59:27;94695.84;;;-5.45;73.51
39789;BME280;25478;42.626;23.320;2023-02-10T08:01:52;94704.69;;;-5.35;73.50
39789;BME280;25478;42.626;23.320;2023-02-10T08:04:18;94703.69;;;-5.34;72.83
39789;BME280;25478;42.626;23.320;2023-02-10T08:06:43;94705.47;;;-5.35;72.79
39789;BME280;25478;42.626;23.320;2023-02-10T08:09:09;94706.25;;;-5.34;72.71
39789;BME280;25478;42.626;23.320;2023-02-10T08:11:34;94699.56;;;-5.35;73.32
39789;BME280;25478;42.626;23.320;2023-02-10T08:14:00;94701.00;;;-5.23;72.83
39789;BME280;25478;42.626;23.320;2023-02-10T08:16:26;94693.22;;;-5.11;72.69
39789;BME280;25478;42.626;23.320;2023-02-10T08:18:51;94690.56;;;-4.99;72.55
39789;BME280;25478;42.626;23.320;2023-02-10T08:21:17;94684.75;;;-4.90;71.29
39789;BME280;25478;42.626;23.320;2023-02-10T08:23:42;94683.53;;;-4.87;71.64
39789;BME280;25478;42.626;23.320;2023-02-10T08:26:09;94689.50;;;-4.82;71.64
39789;BME280;25478;42.626;23.320;2023-02-10T08:28:35;94691.22;;;-4.65;71.53
39789;BME280;25478;42.626;23.320;2023-02-10T08:31:01;94700.25;;;-4.63;70.75
39789;BME280;25478;42.626;23.320;2023-02-10T08:33:27;94701.25;;;-4.64;70.44
39789;BME280;25478;42.626;23.320;2023-02-10T08:35:52;94706.75;;;-4.55;70.40
39789;BME280;25478;42.626;23.320;2023-02-10T08:38:18;94701.78;;;-4.40;70.46
39789;BME280;25478;42.626;23.320;2023-02-10T08:40:43;94698.63;;;-4.25;70.51
39789;BME280;25478;42.626;23.320;2023-02-10T08:43:08;94696.13;;;-4.20;69.69
39789;BME280;25478;42.626;23.320;2023-02-10T08:45:34;94698.91;;;-4.21;69.12
39789;BME280;25478;42.626;23.320;2023-02-10T08:48:00;94695.91;;;-4.13;68.63
39789;BME280;25478;42.626;23.320;2023-02-10T08:50:26;94702.06;;;-4.14;69.20
39789;BME280;25478;42.626;23.320;2023-02-10T08:52:52;94698.28;;;-4.07;68.50
39789;BME280;25478;42.626;23.320;2023-02-10T08:55:17;94699.56;;;-4.09;68.15
39789;BME280;25478;42.626;23.320;2023-02-10T08:57:42;94690.75;;;-4.13;68.31
39789;BME280;25478;42.626;23.320;2023-02-10T09:00:08;94696.94;;;-4.14;67.82
39789;BME280;25478;42.626;23.320;2023-02-10T09:02:34;94698.00;;;-4.10;67.08
39789;BME280;25478;42.626;23.320;2023-02-10T09:04:59;94697.22;;;-4.11;67.81
39789;BME280;25478;42.626;23.320;2023-02-10T09:07:24;94689.41;;;-3.94;68.14
39789;BME280;25478;42.626;23.320;2023-02-10T09:09:50;94688.81;;;-3.74;67.22
39789;BME280;25478;42.626;23.320;2023-02-10T09:12:15;94681.38;;;-3.71;67.12
39789;BME280;25478;42.626;23.320;2023-02-10T09:14:41;94681.16;;;-3.64;66.41
39789;BME280;25478;42.626;23.320;2023-02-10T09:17:07;94680.91;;;-3.62;66.06
39789;BME280;25478;42.626;23.320;2023-02-10T09:19:36;94679.34;;;-3.69;66.12
39789;BME280;25478;42.626;23.320;2023-02-10T09:22:02;94681.50;;;-3.55;65.64
39789;BME280;25478;42.626;23.320;2023-02-10T09:24:28;94680.75;;;-3.51;65.98
39789;BME280;25478;42.626;23.320;2023-02-10T09:26:53;94686.19;;;-3.47;65.76
39789;BME280;25478;42.626;23.320;2023-02-10T09:29:19;94676.41;;;-3.45;65.28
39789;BME280;25478;42.626;23.320;2023-02-10T09:31:44;94684.13;;;-3.45;63.72
39789;BME280;25478;42.626;23.320;2023-02-10T09:34:10;94681.88;;;-3.36;65.21
39789;BME280;25478;42.626;23.320;2023-02-10T09:36:35;94670.84;;;-3.32;64.41
39789;BME280;25478;42.626;23.320;2023-02-10T09:39:01;94672.13;;;-3.29;64.63
39789;BME280;25478;42.626;23.320;2023-02-10T09:51:38;94665.38;;;-2.98;63.32
39789;BME280;25478;42.626;23.320;2023-02-10T09:54:09;94658.75;;;-2.84;63.33
39789;BME280;25478;42.626;23.320;2023-02-10T09:56:35;94656.47;;;-2.75;62.82
39789;BME280;25478;42.626;23.320;2023-02-10T09:59:01;94651.56;;;-2.72;62.76
39789;BME280;25478;42.626;23.320;2023-02-10T10:01:30;94648.25;;;-2.67;62.15
39789;BME280;25478;42.626;23.320;2023-02-10T10:03:59;94653.69;;;-2.59;62.05
39789;BME280;25478;42.626;23.320;2023-02-10T10:06:30;94642.63;;;-2.44;61.87
39789;BME280;25478;42.626;23.320;2023-02-10T10:11:32;94635.50;;;-2.16;61.46
39789;BME280;25478;42.626;23.320;2023-02-10T10:13:58;94633.44;;;-2.04;61.09
39789;BME280;25478;42.626;23.320;2023-02-10T10:26:48;94628.31;;;-1.84;58.23
39789;BME280;25478;42.626;23.320;2023-02-10T10:29:20;94616.16;;;-1.83;58.09
39789;BME280;25478;42.626;23.320;2023-02-10T10:31:50;94612.31;;;-1.76;58.89
39789;BME280;25478;42.626;23.320;2023-02-10T10:34:20;94615.91;;;-1.66;58.51
39789;BME280;25478;42.626;23.320;2023-02-10T10:36:48;94614.59;;;-1.54;58.25
39789;BME280;25478;42.626;23.320;2023-02-10T10:39:22;94610.19;;;-1.53;57.38
39789;BME280;25478;42.626;23.320;2023-02-10T10:41:49;94605.53;;;-1.46;58.38
39789;BME280;25478;42.626;23.320;2023-02-10T10:44:15;94614.03;;;-1.35;57.87
39789;BME280;25478;42.626;23.320;2023-02-10T10:49:25;94604.22;;;-1.23;56.98
39789;BME280;25478;42.626;23.320;2023-02-10T10:51:51;94603.94;;;-1.22;57.16
39789;BME280;25478;42.626;23.320;2023-02-10T10:54:17;94602.13;;;-1.16;56.81
39789;BME280;25478;42.626;23.320;2023-02-10T10:59:54;94596.13;;;-0.96;56.15
39789;BME280;25478;42.626;23.320;2023-02-10T11:01:54;94590.91;;;-0.81;56.55
39789;BME280;25478;42.626;23.320;2023-02-10T11:04:21;94593.16;;;-0.69;56.51
39789;BME280;25478;42.626;23.320;2023-02-10T11:07:09;94591.56;;;-0.60;56.01
39789;BME280;25478;42.626;23.320;2023-02-10T11:09:35;94588.41;;;-0.52;56.20
39789;BME280;25478;42.626;23.320;2023-02-10T11:14:45;94585.47;;;-0.35;55.12
39789;BME280;25478;42.626;23.320;2023-02-10T11:17:30;94576.38;;;-0.28;55.85
39789;BME280;25478;42.626;23.320;2023-02-10T11:19:59;94577.34;;;-0.13;55.88
39789;BME280;25478;42.626;23.320;2023-02-10T11:22:25;94577.81;;;-0.06;55.27
39789;BME280;25478;42.626;23.320;2023-02-10T11:24:51;94584.22;;;0.02;54.96
39789;BME280;25478;42.626;23.320;2023-02-10T11:27:17;94571.47;;;0.10;55.24
39789;BME280;25478;42.626;23.320;2023-02-10T11:29:50;94573.78;;;0.12;54.07
39789;BME280;25478;42.626;23.320;2023-02-10T11:34:45;94562.53;;;-0.08;54.05
39789;BME280;25478;42.626;23.320;2023-02-10T11:37:12;94559.19;;;-0.08;53.83
39789;BME280;25478;42.626;23.320;2023-02-10T11:39:39;94555.78;;;-0.09;53.79
39789;BME280;25478;42.626;23.320;2023-02-10T11:42:11;94557.38;;;-0.08;53.66
39789;BME280;25478;42.626;23.320;2023-02-10T11:44:41;94568.50;;;-0.07;54.01
39789;BME280;25478;42.626;23.320;2023-02-10T11:47:14;94566.13;;;-0.04;53.79
39789;BME280;25478;42.626;23.320;2023-02-10T11:49:44;94560.66;;;-0.02;53.62
39789;BME280;25478;42.626;23.320;2023-02-10T11:52:10;94560.66;;;0.03;52.52
39789;BME280;25478;42.626;23.320;2023-02-10T11:54:36;94555.75;;;0.02;52.98
39789;BME280;25478;42.626;23.320;2023-02-10T11:57:04;94550.50;;;0.07;52.79
39789;BME280;25478;42.626;23.320;2023-02-10T12:05:13;94549.25;;;0.33;52.36
39789;BME280;25478;42.626;23.320;2023-02-10T12:10:35;94539.13;;;0.37;52.22
39789;BME280;25478;42.626;23.320;2023-02-10T12:15:49;94529.16;;;0.49;51.89
39789;BME280;25478;42.626;23.320;2023-02-10T12:23:32;94525.19;;;0.56;50.89
39789;BME280;25478;42.626;23.320;2023-02-10T12:26:04;94519.78;;;0.53;50.70
39789;BME280;25478;42.626;23.320;2023-02-10T12:28:45;94518.09;;;0.43;50.56
39789;BME280;25478;42.626;23.320;2023-02-10T12:36:25;94516.47;;;0.47;50.37
39789;BME280;25478;42.626;23.320;2023-02-10T12:39:02;94519.31;;;0.51;50.55
39789;BME280;25478;42.626;23.320;2023-02-10T12:44:02;94509.19;;;0.49;49.94
39789;BME280;25478;42.626;23.320;2023-02-10T12:52:19;94506.75;;;0.58;50.27
39789;BME280;25478;42.626;23.320;2023-02-10T12:54:48;94510.94;;;0.59;50.32
39789;BME280;25478;42.626;23.320;2023-02-10T12:57:20;94514.44;;;0.68;50.50
39789;BME280;25478;42.626;23.320;2023-02-10T13:00:08;94511.50;;;0.75;50.25
39789;BME280;25478;42.626;23.320;2023-02-10T13:02:39;94513.00;;;0.81;49.90
39789;BME280;25478;42.626;23.320;2023-02-10T13:05:10;94510.06;;;0.88;49.94
39789;BME280;25478;42.626;23.320;2023-02-10T13:07:39;94512.44;;;0.84;50.03
39789;BME280;25478;42.626;23.320;2023-02-10T13:10:48;94511.91;;;0.87;49.56
39789;BME280;25478;42.626;23.320;2023-02-10T13:12:56;94505.38;;;0.90;49.81
39789;BME280;25478;42.626;23.320;2023-02-10T13:15:40;94508.47;;;0.92;49.99
39789;BME280;25478;42.626;23.320;2023-02-10T13:18:25;94510.28;;;0.91;49.54
39789;BME280;25478;42.626;23.320;2023-02-10T13:20:54;94508.75;;;0.90;50.07
39789;BME280;25478;42.626;23.320;2023-02-10T13:26:17;94512.50;;;1.03;49.63
39789;BME280;25478;42.626;23.320;2023-02-10T13:31:34;94503.81;;;1.12;49.80
39789;BME280;25478;42.626;23.320;2023-02-10T13:34:19;94508.44;;;1.16;50.11
39789;BME280;25478;42.626;23.320;2023-02-10T13:36:47;94508.66;;;1.19;49.60
39789;BME280;25478;42.626;23.320;2023-02-10T13:41:40;94505.34;;;1.13;49.35
39789;BME280;25478;42.626;23.320;2023-02-10T13:46:54;94502.41;;;1.01;48.79
39789;BME280;25478;42.626;23.320;2023-02-10T13:49:20;94501.97;;;0.94;48.45
39789;BME280;25478;42.626;23.320;2023-02-10T13:51:47;94504.66;;;0.84;48.68
39789;BME280;25478;42.626;23.320;2023-02-10T13:54:28;94503.34;;;0.87;49.13
39789;BME280;25478;42.626;23.320;2023-02-10T13:56:55;94503.63;;;0.85;48.55
39789;BME280;25478;42.626;23.320;2023-02-10T14:02:28;94505.16;;;0.86;49.09
39789;BME280;25478;42.626;23.320;2023-02-10T14:07:12;94505.16;;;0.86;49.42
39789;BME280;25478;42.626;23.320;2023-02-10T14:09:38;94505.44;;;0.84;49.42
39789;BME280;25478;42.626;23.320;2023-02-10T14:12:04;94510.13;;;0.82;49.57
39789;BME280;25478;42.626;23.320;2023-02-10T14:14:34;94505.78;;;0.78;50.05
39789;BME280;25478;42.626;23.320;2023-02-10T14:21:57;94511.41;;;0.37;50.67
39789;BME280;25478;42.626;23.320;2023-02-10T14:24:24;94507.97;;;0.18;51.48
39789;BME280;25478;42.626;23.320;2023-02-10T14:26:51;94516.91;;;0.02;51.72
39789;BME280;25478;42.626;23.320;2023-02-10T14:29:18;94506.19;;;-0.16;51.72
39789;BME280;25478;42.626;23.320;2023-02-10T14:31:45;94506.56;;;-0.33;52.69
39789;BME280;25478;42.626;23.320;2023-02-10T14:34:24;94512.34;;;-0.46;52.39
39789;BME280;25478;42.626;23.320;2023-02-10T14:36:54;94503.91;;;-0.62;53.21
39789;BME280;25478;42.626;23.320;2023-02-10T14:39:20;94508.13;;;-0.76;52.94
39789;BME280;25478;42.626;23.320;2023-02-10T14:41:47;94504.81;;;-0.87;53.74
39789;BME280;25478;42.626;23.320;2023-02-10T14:44:21;94504.59;;;-0.95;53.23
39789;BME280;25478;42.626;23.320;2023-02-10T14:46:48;94495.38;;;-1.06;53.46